sensor_id;sensor_type;location;lat;lon;timestamp;P1;durP1;ratioP1;P2;durP2;ratioP2
82034;SDS011;71599;49.892;18.914;2023-10-08T00:03:10;8.20;;;3.15;;
82034;SDS011;71599;49.892;18.914;2023-10-08T00:08:11;4.75;;;2.38;;
82034;SDS011;71599;49.892;18.914;2023-10-08T00:13:13;5.85;;;3.13;;
82034;SDS011;71599;49.892;18.914;2023-10-08T00:18:16;5.57;;;2.42;;
82034;SDS011;71599;49.892;18.914;2023-10-08T00:23:17;8.27;;;3.45;;
82034;SDS011;71599;49.892;18.914;2023-10-08T00:28:18;5.43;;;2.75;;
82034;SDS011;71599;49.892;18.914;2023-10-08T00:33:20;6.38;;;2.83;;
82034;SDS011;71599;49.892;18.914;2023-10-08T00:38:21;4.95;;;3.20;;
82034;SDS011;71599;49.892;18.914;2023-10-08T00:43:29;10.02;;;2.67;;
82034;SDS011;71599;49.892;18.914;2023-10-08T00:48:31;7.88;;;2.92;;
82034;SDS011;71599;49.892;18.914;2023-10-08T00:53:32;6.00;;;2.97;;
82034;SDS011;71599;49.892;18.914;2023-10-08T00:58:33;7.65;;;2.78;;
82034;SDS011;71599;49.892;18.914;2023-10-08T01:03:36;5.35;;;2.90;;
82034;SDS011;71599;49.892;18.914;2023-10-08T01:08:37;7.03;;;2.40;;
82034;SDS011;71599;49.892;18.914;2023-10-08T01:13:38;6.65;;;2.67;;
82034;SDS011;71599;49.892;18.914;2023-10-08T01:18:40;6.75;;;2.92;;
82034;SDS011;71599;49.892;18.914;2023-10-08T01:23:43;5.80;;;2.33;;
82034;SDS011;71599;49.892;18.914;2023-10-08T01:28:45;6.82;;;3.20;;
82034;SDS011;71599;49.892;18.914;2023-10-08T01:33:46;4.82;;;1.98;;
82034;SDS011;71599;49.892;18.914;2023-10-08T01:38:48;4.38;;;2.13;;
82034;SDS011;71599;49.892;18.914;2023-10-08T01:43:49;6.35;;;2.95;;
82034;SDS011;71599;49.892;18.914;2023-10-08T01:48:50;4.55;;;2.42;;
82034;SDS011;71599;49.892;18.914;2023-10-08T01:53:52;7.20;;;2.63;;
82034;SDS011;71599;49.892;18.914;2023-10-08T01:58:53;7.38;;;2.50;;
82034;SDS011;71599;49.892;18.914;2023-10-08T02:03:54;5.55;;;3.03;;
82034;SDS011;71599;49.892;18.914;2023-10-08T02:08:57;5.25;;;2.42;;
82034;SDS011;71599;49.892;18.914;2023-10-08T02:13:58;9.30;;;3.03;;
82034;SDS011;71599;49.892;18.914;2023-10-08T02:18:59;6.40;;;2.63;;
82034;SDS011;71599;49.892;18.914;2023-10-08T02:24:01;5.65;;;2.97;;
82034;SDS011;71599;49.892;18.914;2023-10-08T02:29:02;4.75;;;2.13;;
82034;SDS011;71599;49.892;18.914;2023-10-08T02:34:03;7.15;;;2.63;;
82034;SDS011;71599;49.892;18.914;2023-10-08T02:39:06;6.65;;;2.25;;
82034;SDS011;71599;49.892;18.914;2023-10-08T02:44:08;5.35;;;2.58;;
82034;SDS011;71599;49.892;18.914;2023-10-08T02:49:09;5.75;;;3.38;;
82034;SDS011;71599;49.892;18.914;2023-10-08T02:54:11;5.80;;;2.85;;
82034;SDS011;71599;49.892;18.914;2023-10-08T02:59:12;7.43;;;3.05;;
82034;SDS011;71599;49.892;18.914;2023-10-08T03:04:13;5.28;;;3.00;;
82034;SDS011;71599;49.892;18.914;2023-10-08T03:09:16;2.35;;;0.90;;
82034;SDS011;71599;49.892;18.914;2023-10-08T03:14:17;0.10;;;0.10;;
82034;SDS011;71599;49.892;18.914;2023-10-08T03:19:19;0.10;;;0.08;;
82034;SDS011;71599;49.892;18.914;2023-10-08T03:24:23;0.30;;;0.10;;
82034;SDS011;71599;49.892;18.914;2023-10-08T03:29:24;1.10;;;0.20;;
82034;SDS011;71599;49.892;18.914;2023-10-08T03:34:25;0.30;;;0.10;;
82034;SDS011;71599;49.892;18.914;2023-10-08T03:39:28;0.90;;;0.10;;
82034;SDS011;71599;49.892;18.914;2023-10-08T03:44:29;0.38;;;0.10;;
82034;SDS011;71599;49.892;18.914;2023-10-08T03:49:30;0.03;;;0.03;;
82034;SDS011;71599;49.892;18.914;2023-10-08T03:59:33;0.20;;;0.00;;
82034;SDS011;71599;49.892;18.914;2023-10-08T04:09:36;0.45;;;0.28;;
82034;SDS011;71599;49.892;18.914;2023-10-08T04:14:37;0.30;;;0.20;;
82034;SDS011;71599;49.892;18.914;2023-10-08T04:19:38;0.57;;;0.30;;
82034;SDS011;71599;49.892;18.914;2023-10-08T04:29:41;0.52;;;0.40;;
82034;SDS011;71599;49.892;18.914;2023-10-08T04:34:42;0.77;;;0.32;;
82034;SDS011;71599;49.892;18.914;2023-10-08T04:39:44;1.05;;;0.50;;
82034;SDS011;71599;49.892;18.914;2023-10-08T04:44:45;1.15;;;0.20;;
82034;SDS011;71599;49.892;18.914;2023-10-08T04:49:46;1.25;;;0.25;;
82034;SDS011;71599;49.892;18.914;2023-10-08T04:54:48;0.40;;;0.15;;
82034;SDS011;71599;49.892;18.914;2023-10-08T04:59:49;2.72;;;0.60;;
82034;SDS011;71599;49.892;18.914;2023-10-08T05:04:50;3.10;;;0.40;;
82034;SDS011;71599;49.892;18.914;2023-10-08T05:09:53;3.03;;;0.70;;
82034;SDS011;71599;49.892;18.914;2023-10-08T05:14:54;2.50;;;0.40;;
82034;SDS011;71599;49.892;18.914;2023-10-08T05:19:55;1.40;;;0.38;;
82034;SDS011;71599;49.892;18.914;2023-10-08T05:24:58;1.98;;;0.43;;
82034;SDS011;71599;49.892;18.914;2023-10-08T05:30:01;1.95;;;0.68;;
82034;SDS011;71599;49.892;18.914;2023-10-08T05:35:04;2.17;;;0.43;;
82034;SDS011;71599;49.892;18.914;2023-10-08T05:40:08;4.43;;;1.15;;
82034;SDS011;71599;49.892;18.914;2023-10-08T05:45:09;1.15;;;0.43;;
82034;SDS011;71599;49.892;18.914;2023-10-08T05:50:10;2.90;;;0.80;;
82034;SDS011;71599;49.892;18.914;2023-10-08T05:55:12;2.60;;;0.63;;
82034;SDS011;71599;49.892;18.914;2023-10-08T06:00:14;2.97;;;0.57;;
82034;SDS011;71599;49.892;18.914;2023-10-08T06:05:15;4.18;;;1.05;;
82034;SDS011;71599;49.892;18.914;2023-10-08T06:10:18;3.03;;;0.80;;
82034;SDS011;71599;49.892;18.914;2023-10-08T06:15:19;3.17;;;1.60;;
82034;SDS011;71599;49.892;18.914;2023-10-08T06:20:21;4.95;;;2.70;;
82034;SDS011;71599;49.892;18.914;2023-10-08T06:25:24;1.48;;;0.80;;
82034;SDS011;71599;49.892;18.914;2023-10-08T06:30:26;2.15;;;0.95;;
82034;SDS011;71599;49.892;18.914;2023-10-08T06:40:29;3.67;;;0.95;;
82034;SDS011;71599;49.892;18.914;2023-10-08T06:45:30;2.08;;;0.68;;
82034;SDS011;71599;49.892;18.914;2023-10-08T06:50:31;2.15;;;0.52;;
82034;SDS011;71599;49.892;18.914;2023-10-08T06:55:34;3.00;;;1.55;;
82034;SDS011;71599;49.892;18.914;2023-10-08T07:00:35;0.88;;;0.52;;
82034;SDS011;71599;49.892;18.914;2023-10-08T07:05:37;2.10;;;0.60;;
82034;SDS011;71599;49.892;18.914;2023-10-08T07:10:39;1.67;;;0.85;;
82034;SDS011;71599;49.892;18.914;2023-10-08T07:15:41;0.85;;;0.50;;
82034;SDS011;71599;49.892;18.914;2023-10-08T07:20:44;1.35;;;0.70;;
82034;SDS011;71599;49.892;18.914;2023-10-08T07:25:48;0.68;;;0.30;;
82034;SDS011;71599;49.892;18.914;2023-10-08T07:30:52;2.28;;;0.90;;
82034;SDS011;71599;49.892;18.914;2023-10-08T07:40:56;1.83;;;0.35;;
82034;SDS011;71599;49.892;18.914;2023-10-08T07:45:57;0.52;;;0.30;;
82034;SDS011;71599;49.892;18.914;2023-10-08T07:50:58;1.23;;;0.38;;
82034;SDS011;71599;49.892;18.914;2023-10-08T08:01:02;2.45;;;0.65;;
82034;SDS011;71599;49.892;18.914;2023-10-08T08:06:04;1.08;;;0.57;;
82034;SDS011;71599;49.892;18.914;2023-10-08T08:11:08;4.32;;;0.88;;
82034;SDS011;71599;49.892;18.914;2023-10-08T08:16:10;1.55;;;0.90;;
82034;SDS011;71599;49.892;18.914;2023-10-08T08:21:12;2.78;;;0.98;;
82034;SDS011;71599;49.892;18.914;2023-10-08T08:26:15;1.80;;;0.93;;
82034;SDS011;71599;49.892;18.914;2023-10-08T08:31:17;3.30;;;1.23;;
82034;SDS011;71599;49.892;18.914;2023-10-08T08:41:20;2.65;;;1.38;;
82034;SDS011;71599;49.892;18.914;2023-10-08T08:46:24;10.07;;;4.53;;
82034;SDS011;71599;49.892;18.914;2023-10-08T08:51:28;6.13;;;4.85;;
82034;SDS011;71599;49.892;18.914;2023-10-08T08:56:31;3.45;;;1.90;;
82034;SDS011;71599;49.892;18.914;2023-10-08T09:01:33;5.50;;;2.92;;
82034;SDS011;71599;49.892;18.914;2023-10-08T09:11:38;3.38;;;2.22;;
82034;SDS011;71599;49.892;18.914;2023-10-08T09:16:41;7.18;;;2.85;;
82034;SDS011;71599;49.892;18.914;2023-10-08T09:21:42;3.08;;;1.88;;
82034;SDS011;71599;49.892;18.914;2023-10-08T09:31:51;3.00;;;2.20;;
82034;SDS011;71599;49.892;18.914;2023-10-08T09:36:54;4.00;;;1.95;;
82034;SDS011;71599;49.892;18.914;2023-10-08T09:41:58;2.78;;;1.35;;
82034;SDS011;71599;49.892;18.914;2023-10-08T09:47:02;2.42;;;1.70;;
82034;SDS011;71599;49.892;18.914;2023-10-08T09:52:04;1.77;;;1.40;;
82034;SDS011;71599;49.892;18.914;2023-10-08T09:57:08;3.97;;;1.48;;
82034;SDS011;71599;49.892;18.914;2023-10-08T10:02:10;5.60;;;2.10;;
82034;SDS011;71599;49.892;18.914;2023-10-08T10:07:12;3.45;;;1.42;;
82034;SDS011;71599;49.892;18.914;2023-10-08T10:12:21;2.22;;;1.40;;
82034;SDS011;71599;49.892;18.914;2023-10-08T10:17:26;3.03;;;1.77;;
82034;SDS011;71599;49.892;18.914;2023-10-08T10:22:28;2.13;;;1.38;;
82034;SDS011;71599;49.892;18.914;2023-10-08T10:27:31;4.38;;;1.58;;
82034;SDS011;71599;49.892;18.914;2023-10-08T10:32:32;1.67;;;0.73;;
82034;SDS011;71599;49.892;18.914;2023-10-08T10:37:33;3.97;;;1.55;;
82034;SDS011;71599;49.892;18.914;2023-10-08T10:42:35;2.17;;;1.15;;
82034;SDS011;71599;49.892;18.914;2023-10-08T10:47:36;1.90;;;0.63;;
82034;SDS011;71599;49.892;18.914;2023-10-08T10:52:37;1.88;;;0.90;;
82034;SDS011;71599;49.892;18.914;2023-10-08T10:57:40;2.22;;;1.08;;
82034;SDS011;71599;49.892;18.914;2023-10-08T11:02:41;1.63;;;0.70;;
82034;SDS011;71599;49.892;18.914;2023-10-08T11:07:43;8.48;;;2.67;;
82034;SDS011;71599;49.892;18.914;2023-10-08T11:12:47;1.42;;;0.50;;
82034;SDS011;71599;49.892;18.914;2023-10-08T11:17:49;1.42;;;0.70;;
82034;SDS011;71599;49.892;18.914;2023-10-08T11:22:50;1.30;;;0.88;;
82034;SDS011;71599;49.892;18.914;2023-10-08T11:27:53;2.38;;;0.60;;
82034;SDS011;71599;49.892;18.914;2023-10-08T11:32:54;2.17;;;1.10;;
82034;SDS011;71599;49.892;18.914;2023-10-08T11:37:58;1.10;;;0.80;;
82034;SDS011;71599;49.892;18.914;2023-10-08T11:43:01;3.88;;;1.75;;
82034;SDS011;71599;49.892;18.914;2023-10-08T11:48:02;2.22;;;0.88;;
82034;SDS011;71599;49.892;18.914;2023-10-08T11:53:05;2.35;;;0.85;;
82034;SDS011;71599;49.892;18.914;2023-10-08T11:58:07;1.05;;;0.55;;
82034;SDS011;71599;49.892;18.914;2023-10-08T12:03:09;2.00;;;0.77;;
82034;SDS011;71599;49.892;18.914;2023-10-08T12:08:10;1.48;;;0.52;;
82034;SDS011;71599;49.892;18.914;2023-10-08T12:13:13;2.17;;;0.88;;
82034;SDS011;71599;49.892;18.914;2023-10-08T12:18:14;0.80;;;0.52;;
82034;SDS011;71599;49.892;18.914;2023-10-08T12:23:15;2.60;;;0.57;;
82034;SDS011;71599;49.892;18.914;2023-10-08T12:28:18;1.13;;;0.43;;
82034;SDS011;71599;49.892;18.914;2023-10-08T12:33:19;1.08;;;0.52;;
82034;SDS011;71599;49.892;18.914;2023-10-08T12:38:20;2.22;;;0.50;;
82034;SDS011;71599;49.892;18.914;2023-10-08T12:43:23;0.98;;;0.63;;
82034;SDS011;71599;49.892;18.914;2023-10-08T12:48:26;1.45;;;0.93;;
82034;SDS011;71599;49.892;18.914;2023-10-08T12:53:28;2.90;;;1.00;;
82034;SDS011;71599;49.892;18.914;2023-10-08T12:58:31;2.65;;;0.80;;
82034;SDS011;71599;49.892;18.914;2023-10-08T13:03:33;1.33;;;0.40;;
82034;SDS011;71599;49.892;18.914;2023-10-08T13:08:34;0.68;;;0.47;;
82034;SDS011;71599;49.892;18.914;2023-10-08T13:18:37;1.52;;;1.05;;
82034;SDS011;71599;49.892;18.914;2023-10-08T13:23:38;1.52;;;0.43;;
82034;SDS011;71599;49.892;18.914;2023-10-08T13:28:40;0.93;;;0.43;;
82034;SDS011;71599;49.892;18.914;2023-10-08T13:33:43;1.58;;;0.70;;
82034;SDS011;71599;49.892;18.914;2023-10-08T13:38:44;1.05;;;0.45;;
82034;SDS011;71599;49.892;18.914;2023-10-08T13:43:47;1.88;;;0.55;;
82034;SDS011;71599;49.892;18.914;2023-10-08T13:48:49;1.50;;;0.52;;
82034;SDS011;71599;49.892;18.914;2023-10-08T13:53:50;1.52;;;0.47;;
82034;SDS011;71599;49.892;18.914;2023-10-08T13:58:54;1.60;;;0.50;;
82034;SDS011;71599;49.892;18.914;2023-10-08T14:03:55;0.60;;;0.40;;
82034;SDS011;71599;49.892;18.914;2023-10-08T14:08:56;1.00;;;0.43;;
82034;SDS011;71599;49.892;18.914;2023-10-08T14:13:59;1.30;;;0.73;;
82034;SDS011;71599;49.892;18.914;2023-10-08T14:18:59;1.35;;;0.73;;
82034;SDS011;71599;49.892;18.914;2023-10-08T14:24:01;2.88;;;0.30;;
82034;SDS011;71599;49.892;18.914;2023-10-08T14:29:04;1.63;;;0.45;;
82034;SDS011;71599;49.892;18.914;2023-10-08T14:34:05;0.85;;;0.50;;
82034;SDS011;71599;49.892;18.914;2023-10-08T14:39:08;2.50;;;0.75;;
82034;SDS011;71599;49.892;18.914;2023-10-08T14:44:11;0.57;;;0.20;;
82034;SDS011;71599;49.892;18.914;2023-10-08T14:49:12;1.38;;;0.95;;
82034;SDS011;71599;49.892;18.914;2023-10-08T14:54:13;1.63;;;0.52;;
82034;SDS011;71599;49.892;18.914;2023-10-08T14:59:15;0.63;;;0.32;;
82034;SDS011;71599;49.892;18.914;2023-10-08T15:04:17;0.68;;;0.30;;
82034;SDS011;71599;49.892;18.914;2023-10-08T15:09:17;2.13;;;0.90;;
82034;SDS011;71599;49.892;18.914;2023-10-08T15:14:20;1.38;;;0.65;;
82034;SDS011;71599;49.892;18.914;2023-10-08T15:19:22;1.20;;;0.40;;
82034;SDS011;71599;49.892;18.914;2023-10-08T15:24:23;1.30;;;0.52;;
82034;SDS011;71599;49.892;18.914;2023-10-08T15:29:26;1.40;;;0.50;;
82034;SDS011;71599;49.892;18.914;2023-10-08T15:34:27;0.90;;;0.43;;
82034;SDS011;71599;49.892;18.914;2023-10-08T15:39:28;0.90;;;0.40;;
82034;SDS011;71599;49.892;18.914;2023-10-08T15:44:31;1.48;;;0.50;;
82034;SDS011;71599;49.892;18.914;2023-10-08T15:49:31;2.13;;;0.43;;
82034;SDS011;71599;49.892;18.914;2023-10-08T15:54:32;2.13;;;0.88;;
82034;SDS011;71599;49.892;18.914;2023-10-08T15:59:35;1.90;;;0.77;;
82034;SDS011;71599;49.892;18.914;2023-10-08T16:04:36;1.20;;;0.50;;
82034;SDS011;71599;49.892;18.914;2023-10-08T16:09:37;1.75;;;0.90;;
82034;SDS011;71599;49.892;18.914;2023-10-08T16:14:39;2.30;;;0.93;;
82034;SDS011;71599;49.892;18.914;2023-10-08T16:19:40;4.28;;;3.08;;
82034;SDS011;71599;49.892;18.914;2023-10-08T16:29:43;2.92;;;1.17;;
82034;SDS011;71599;49.892;18.914;2023-10-08T16:34:44;2.03;;;0.70;;
82034;SDS011;71599;49.892;18.914;2023-10-08T16:39:45;2.17;;;1.02;;
82034;SDS011;71599;49.892;18.914;2023-10-08T16:44:47;1.92;;;0.82;;
82034;SDS011;71599;49.892;18.914;2023-10-08T16:49:48;1.80;;;0.70;;
82034;SDS011;71599;49.892;18.914;2023-10-08T16:54:49;2.63;;;0.88;;
82034;SDS011;71599;49.892;18.914;2023-10-08T16:59:52;2.88;;;1.40;;
82034;SDS011;71599;49.892;18.914;2023-10-08T17:04:53;1.60;;;1.20;;
82034;SDS011;71599;49.892;18.914;2023-10-08T17:09:54;4.00;;;1.88;;
82034;SDS011;71599;49.892;18.914;2023-10-08T17:14:56;3.22;;;1.73;;
82034;SDS011;71599;49.892;18.914;2023-10-08T17:19:57;3.40;;;1.58;;
82034;SDS011;71599;49.892;18.914;2023-10-08T17:24:58;1.67;;;1.13;;
82034;SDS011;71599;49.892;18.914;2023-10-08T17:30:01;5.07;;;1.30;;
82034;SDS011;71599;49.892;18.914;2023-10-08T17:35:02;3.22;;;1.58;;
82034;SDS011;71599;49.892;18.914;2023-10-08T17:40:05;5.40;;;1.98;;
82034;SDS011;71599;49.892;18.914;2023-10-08T17:45:08;3.80;;;1.98;;
82034;SDS011;71599;49.892;18.914;2023-10-08T17:50:10;5.70;;;2.40;;
82034;SDS011;71599;49.892;18.914;2023-10-08T17:55:11;3.85;;;1.60;;
82034;SDS011;71599;49.892;18.914;2023-10-08T18:00:14;3.17;;;1.70;;
82034;SDS011;71599;49.892;18.914;2023-10-08T18:05:15;3.78;;;1.40;;
82034;SDS011;71599;49.892;18.914;2023-10-08T18:10:17;4.95;;;2.00;;
82034;SDS011;71599;49.892;18.914;2023-10-08T18:15:20;6.70;;;2.85;;
82034;SDS011;71599;49.892;18.914;2023-10-08T18:20:22;5.55;;;2.63;;
82034;SDS011;71599;49.892;18.914;2023-10-08T18:25:23;17.70;;;6.60;;
82034;SDS011;71599;49.892;18.914;2023-10-08T18:30:25;3.40;;;1.50;;
82034;SDS011;71599;49.892;18.914;2023-10-08T18:35:26;5.53;;;2.35;;
82034;SDS011;71599;49.892;18.914;2023-10-08T18:40:27;10.63;;;4.80;;
82034;SDS011;71599;49.892;18.914;2023-10-08T18:45:29;11.40;;;4.57;;
82034;SDS011;71599;49.892;18.914;2023-10-08T18:50:30;5.78;;;3.35;;
82034;SDS011;71599;49.892;18.914;2023-10-08T18:55:31;10.18;;;5.72;;
82034;SDS011;71599;49.892;18.914;2023-10-08T19:00:34;14.52;;;7.45;;
82034;SDS011;71599;49.892;18.914;2023-10-08T19:05:35;18.40;;;8.55;;
82034;SDS011;71599;49.892;18.914;2023-10-08T19:10:36;18.33;;;8.90;;
82034;SDS011;71599;49.892;18.914;2023-10-08T19:15:38;19.83;;;10.18;;
82034;SDS011;71599;49.892;18.914;2023-10-08T19:20:39;23.55;;;10.73;;
82034;SDS011;71599;49.892;18.914;2023-10-08T19:25:45;24.83;;;10.80;;
82034;SDS011;71599;49.892;18.914;2023-10-08T19:30:48;22.10;;;11.93;;
82034;SDS011;71599;49.892;18.914;2023-10-08T19:35:54;19.60;;;8.10;;
82034;SDS011;71599;49.892;18.914;2023-10-08T19:40:55;16.88;;;8.07;;
82034;SDS011;71599;49.892;18.914;2023-10-08T19:45:58;22.02;;;10.13;;
82034;SDS011;71599;49.892;18.914;2023-10-08T19:50:59;18.73;;;8.20;;
82034;SDS011;71599;49.892;18.914;2023-10-08T19:55:59;19.88;;;10.38;;
82034;SDS011;71599;49.892;18.914;2023-10-08T20:01:02;26.08;;;10.40;;
82034;SDS011;71599;49.892;18.914;2023-10-08T20:06:03;24.30;;;9.50;;
82034;SDS011;71599;49.892;18.914;2023-10-08T20:11:04;16.95;;;8.38;;
82034;SDS011;71599;49.892;18.914;2023-10-08T20:16:07;18.73;;;7.38;;
82034;SDS011;71599;49.892;18.914;2023-10-08T20:21:08;14.07;;;7.40;;
82034;SDS011;71599;49.892;18.914;2023-10-08T20:26:10;17.00;;;8.02;;
82034;SDS011;71599;49.892;18.914;2023-10-08T20:36:14;22.88;;;9.50;;
82034;SDS011;71599;49.892;18.914;2023-10-08T20:41:15;21.65;;;9.82;;
82034;SDS011;71599;49.892;18.914;2023-10-08T20:46:18;20.13;;;10.88;;
82034;SDS011;71599;49.892;18.914;2023-10-08T20:51:19;21.10;;;9.63;;
82034;SDS011;71599;49.892;18.914;2023-10-08T20:56:20;18.52;;;9.68;;
82034;SDS011;71599;49.892;18.914;2023-10-08T21:01:22;16.63;;;8.18;;
82034;SDS011;71599;49.892;18.914;2023-10-08T21:06:23;29.13;;;8.80;;
82034;SDS011;71599;49.892;18.914;2023-10-08T21:11:24;13.88;;;7.72;;
82034;SDS011;71599;49.892;18.914;2023-10-08T21:16:27;16.38;;;7.22;;
82034;SDS011;71599;49.892;18.914;2023-10-08T21:21:28;18.27;;;9.15;;
82034;SDS011;71599;49.892;18.914;2023-10-08T21:26:29;22.20;;;8.80;;
82034;SDS011;71599;49.892;18.914;2023-10-08T21:31:31;14.38;;;7.28;;
82034;SDS011;71599;49.892;18.914;2023-10-08T21:36:32;14.50;;;8.23;;
82034;SDS011;71599;49.892;18.914;2023-10-08T21:41:33;12.00;;;6.97;;
82034;SDS011;71599;49.892;18.914;2023-10-08T21:46:35;15.90;;;7.75;;
82034;SDS011;71599;49.892;18.914;2023-10-08T21:51:36;15.82;;;8.15;;
82034;SDS011;71599;49.892;18.914;2023-10-08T21:56:38;17.20;;;8.43;;
82034;SDS011;71599;49.892;18.914;2023-10-08T22:01:40;16.17;;;8.52;;
82034;SDS011;71599;49.892;18.914;2023-10-08T22:06:41;14.30;;;7.35;;
82034;SDS011;71599;49.892;18.914;2023-10-08T22:11:42;11.40;;;6.28;;
82034;SDS011;71599;49.892;18.914;2023-10-08T22:16:45;11.13;;;6.53;;
82034;SDS011;71599;49.892;18.914;2023-10-08T22:21:46;13.40;;;7.22;;
82034;SDS011;71599;49.892;18.914;2023-10-08T22:26:47;13.00;;;6.65;;
82034;SDS011;71599;49.892;18.914;2023-10-08T22:31:49;12.25;;;6.63;;
82034;SDS011;71599;49.892;18.914;2023-10-08T22:36:51;11.70;;;7.18;;
82034;SDS011;71599;49.892;18.914;2023-10-08T22:41:52;13.77;;;6.50;;
82034;SDS011;71599;49.892;18.914;2023-10-08T22:46:54;12.15;;;6.88;;
82034;SDS011;71599;49.892;18.914;2023-10-08T22:51:56;17.42;;;7.47;;
82034;SDS011;71599;49.892;18.914;2023-10-08T22:56:57;20.80;;;8.32;;
82034;SDS011;71599;49.892;18.914;2023-10-08T23:01:59;19.38;;;8.15;;
82034;SDS011;71599;49.892;18.914;2023-10-08T23:07:00;17.92;;;8.18;;
82034;SDS011;71599;49.892;18.914;2023-10-08T23:12:01;14.63;;;7.47;;
82034;SDS011;71599;49.892;18.914;2023-10-08T23:17:04;14.85;;;6.85;;
82034;SDS011;71599;49.892;18.914;2023-10-08T23:22:05;21.17;;;8.30;;
82034;SDS011;71599;49.892;18.914;2023-10-08T23:27:06;21.52;;;7.47;;
82034;SDS011;71599;49.892;18.914;2023-10-08T23:32:08;15.00;;;7.75;;
82034;SDS011;71599;49.892;18.914;2023-10-08T23:37:09;16.73;;;7.22;;
82034;SDS011;71599;49.892;18.914;2023-10-08T23:42:10;15.13;;;7.38;;
82034;SDS011;71599;49.892;18.914;2023-10-08T23:47:12;10.38;;;5.28;;
82034;SDS011;71599;49.892;18.914;2023-10-08T23:52:13;14.75;;;5.75;;
82034;SDS011;71599;49.892;18.914;2023-10-08T23:57:15;15.50;;;6.88;;
